createdAt,value
2023-08-23T00:01:32.159Z,25.41
2023-08-23T00:04:16.128Z,25.54
2023-08-23T00:07:00.143Z,25.54
2023-08-23T00:09:44.172Z,25.61
2023-08-23T00:12:28.211Z,25.39
2023-08-23T00:15:12.174Z,25.53
2023-08-23T00:17:57.573Z,25.67
2023-08-23T00:20:41.376Z,25.89
2023-08-23T00:23:25.306Z,25.77
2023-08-23T00:26:09.368Z,25.78
2023-08-23T00:28:53.204Z,25.94
2023-08-23T00:31:38.424Z,26.07
2023-08-23T00:34:23.954Z,25.90
2023-08-23T00:37:08.111Z,26.05
2023-08-23T00:39:52.116Z,25.92
2023-08-23T00:42:36.133Z,26.07
2023-08-23T00:45:20.248Z,25.99
2023-08-23T00:48:05.972Z,25.92
2023-08-23T00:50:51.344Z,26.02
2023-08-23T00:53:35.291Z,26.17
2023-08-23T00:56:19.221Z,26.05
2023-08-23T00:59:03.492Z,25.87
2023-08-23T01:01:47.498Z,26.05
2023-08-23T01:04:31.395Z,26.05
2023-08-23T01:07:18.448Z,25.71
2023-08-23T01:10:14.421Z,26.02
2023-08-23T01:13:10.261Z,25.89
2023-08-23T01:15:56.139Z,25.96
2023-08-23T01:18:43.805Z,25.76
2023-08-23T01:21:34.082Z,26.13
2023-08-23T01:24:19.608Z,26.08
2023-08-23T01:27:03.712Z,26.16
2023-08-23T01:29:48.257Z,26.18
2023-08-23T01:32:41.830Z,26.00
2023-08-23T01:35:34.195Z,25.99
2023-08-23T01:38:21.320Z,25.89
2023-08-23T01:41:07.782Z,25.89
2023-08-23T01:43:53.834Z,25.47
2023-08-23T01:46:38.139Z,25.61
2023-08-23T01:49:23.133Z,25.54
2023-08-23T01:52:07.771Z,25.67
2023-08-23T01:54:51.897Z,25.52
2023-08-23T01:57:38.152Z,25.73
2023-08-23T02:00:22.058Z,25.60
2023-08-23T02:03:06.692Z,25.97
2023-08-23T02:05:50.633Z,25.85
2023-08-23T02:08:36.580Z,25.79
2023-08-23T02:11:20.591Z,25.69
2023-08-23T02:14:05.980Z,25.91
2023-08-23T02:16:50.235Z,25.71
2023-08-23T02:19:34.147Z,25.87
2023-08-23T02:22:18.083Z,25.96
2023-08-23T02:25:01.988Z,25.65
2023-08-23T02:27:46.038Z,25.88
2023-08-23T02:30:32.563Z,25.92
2023-08-23T02:33:16.410Z,25.79
2023-08-23T02:36:00.295Z,25.88
2023-08-23T02:38:44.765Z,25.82
2023-08-23T02:41:28.581Z,25.70
2023-08-23T02:44:12.501Z,25.50
2023-08-23T02:46:57.745Z,25.42
2023-08-23T02:49:41.592Z,25.50
2023-08-23T02:52:27.322Z,25.53
2023-08-23T02:55:11.285Z,25.63
2023-08-23T02:57:55.472Z,25.56
2023-08-23T03:00:39.334Z,25.85
2023-08-23T03:03:25.019Z,25.78
2023-08-23T03:06:10.577Z,25.85
2023-08-23T03:08:54.494Z,25.81
2023-08-23T03:11:38.428Z,25.68
2023-08-23T03:14:22.365Z,25.86
2023-08-23T03:17:07.540Z,25.91
2023-08-23T03:19:53.095Z,25.89
2023-08-23T03:22:37.481Z,25.85
2023-08-23T03:25:21.994Z,25.80
2023-08-23T03:28:07.625Z,25.96
2023-08-23T03:30:51.667Z,25.74
2023-08-23T03:33:35.584Z,25.97
2023-08-23T03:36:21.004Z,26.12
2023-08-23T03:39:05.058Z,25.87
2023-08-23T03:41:49.249Z,25.38
2023-08-23T03:44:33.153Z,25.49
2023-08-23T03:47:17.078Z,25.43
2023-08-23T03:50:01.109Z,25.46
2023-08-23T03:52:46.662Z,25.24
2023-08-23T03:55:30.551Z,25.04
2023-08-23T03:58:14.478Z,25.17
2023-08-23T04:00:58.427Z,24.88
2023-08-23T04:03:42.478Z,24.77
2023-08-23T04:06:26.443Z,24.60
2023-08-23T04:09:11.820Z,24.64
2023-08-23T04:11:55.848Z,24.75
2023-08-23T04:14:39.886Z,24.95
2023-08-23T04:17:25.344Z,24.95
2023-08-23T04:20:11.883Z,25.10
2023-08-23T04:22:56.455Z,25.44
2023-08-23T04:25:41.939Z,25.56
2023-08-23T04:28:25.834Z,25.19
2023-08-23T04:31:09.844Z,25.83
2023-08-23T04:34:06.052Z,25.93
2023-08-23T04:36:51.622Z,25.64
2023-08-23T04:39:35.800Z,25.96
2023-08-23T04:42:21.298Z,25.86
2023-08-23T04:45:05.806Z,25.60
2023-08-23T04:47:52.636Z,25.65
2023-08-23T04:50:37.704Z,25.60
2023-08-23T04:53:21.806Z,25.78
2023-08-23T04:56:06.156Z,25.89
2023-08-23T04:58:51.922Z,25.77
2023-08-23T05:01:35.921Z,25.78
2023-08-23T05:04:22.501Z,25.94
2023-08-23T05:07:07.607Z,26.09
2023-08-23T05:09:51.718Z,25.88
2023-08-23T05:12:35.842Z,26.16
2023-08-23T05:15:21.453Z,26.26
2023-08-23T05:18:05.428Z,26.68
2023-08-23T05:20:54.815Z,26.85
2023-08-23T05:23:38.670Z,27.25
2023-08-23T05:26:24.131Z,27.22
2023-08-23T05:29:08.060Z,27.79
2023-08-23T05:31:55.082Z,28.21
2023-08-23T05:34:40.216Z,28.30
2023-08-23T05:37:24.315Z,28.44
2023-08-23T05:40:10.262Z,28.68
2023-08-23T05:42:54.389Z,28.25
2023-08-23T05:45:38.428Z,28.92
2023-08-23T05:48:23.743Z,29.29
2023-08-23T05:51:08.561Z,28.85
2023-08-23T05:53:52.435Z,28.61
2023-08-23T05:56:36.488Z,28.72
2023-08-23T05:59:20.516Z,28.98
2023-08-23T06:02:04.525Z,29.54
2023-08-23T06:04:49.955Z,29.79
2023-08-23T06:07:34.043Z,30.16
2023-08-23T06:10:17.969Z,30.10
2023-08-23T06:13:03.656Z,30.32
2023-08-23T06:15:47.630Z,30.07
2023-08-23T06:18:31.692Z,30.26
2023-08-23T06:21:19.055Z,30.01
2023-08-23T06:24:04.204Z,30.15
2023-08-23T06:26:48.060Z,30.24
2023-08-23T06:29:32.038Z,30.11
2023-08-23T06:32:15.978Z,30.20
2023-08-23T06:35:00.700Z,30.34
2023-08-23T06:37:46.626Z,30.38
2023-08-23T06:40:30.820Z,30.41
2023-08-23T06:43:19.965Z,30.22
2023-08-23T06:46:04.070Z,30.47
2023-08-23T06:48:48.043Z,30.88
2023-08-23T06:51:32.078Z,31.11
2023-08-23T06:54:17.298Z,31.27
2023-08-23T06:57:01.129Z,31.42
2023-08-23T06:59:45.436Z,31.54
2023-08-23T07:02:29.439Z,31.50
2023-08-23T07:05:13.306Z,31.47
2023-08-23T07:07:57.313Z,31.83
2023-08-23T07:10:43.789Z,32.09
2023-08-23T07:13:29.384Z,32.66
2023-08-23T07:16:13.308Z,33.35
2023-08-23T07:18:57.360Z,33.46
2023-08-23T07:21:41.319Z,33.30
2023-08-23T07:24:25.191Z,34.33
2023-08-23T07:27:10.564Z,34.33
2023-08-23T07:29:54.716Z,34.58
2023-08-23T07:32:38.695Z,34.14
2023-08-23T07:35:22.622Z,34.67
2023-08-23T07:38:06.683Z,34.26
2023-08-23T07:40:50.563Z,34.19
2023-08-23T07:43:35.915Z,33.60
2023-08-23T07:46:19.884Z,33.59
2023-08-23T07:49:03.938Z,33.61
2023-08-23T07:51:49.589Z,33.50
2023-08-23T07:54:33.692Z,33.58
2023-08-23T07:57:17.542Z,33.11
2023-08-23T08:00:02.835Z,33.23
2023-08-23T08:02:50.997Z,33.27
2023-08-23T08:05:36.547Z,33.46
2023-08-23T08:08:20.419Z,33.57
2023-08-23T08:11:04.319Z,33.42
2023-08-23T08:13:48.373Z,33.68
2023-08-23T08:16:33.673Z,33.11
2023-08-23T08:19:17.612Z,33.56
2023-08-23T08:22:01.507Z,33.85
2023-08-23T08:24:45.428Z,34.12
2023-08-23T08:27:29.360Z,34.10
2023-08-23T08:30:13.666Z,34.07
2023-08-23T08:32:59.127Z,33.94
2023-08-23T08:35:43.217Z,34.03
2023-08-23T08:38:27.264Z,34.47
2023-08-23T08:41:12.163Z,34.80
2023-08-23T08:43:56.259Z,35.08
2023-08-23T08:46:40.857Z,35.39
2023-08-23T08:49:26.287Z,35.61
2023-08-23T08:52:14.845Z,35.44
2023-08-23T08:54:59.555Z,35.59
2023-08-23T08:57:44.705Z,35.51
2023-08-23T09:00:31.620Z,35.90
2023-08-23T09:03:15.983Z,35.62
2023-08-23T09:06:01.387Z,35.73
2023-08-23T09:08:45.679Z,35.62
2023-08-23T09:11:29.490Z,35.64
2023-08-23T09:14:17.277Z,36.00
2023-08-23T09:17:01.174Z,36.20
2023-08-23T09:19:45.295Z,36.53
2023-08-23T09:22:30.784Z,36.19
2023-08-23T09:25:14.726Z,35.82
2023-08-23T09:27:58.758Z,35.90
2023-08-23T09:30:43.084Z,35.90
2023-08-23T09:33:26.904Z,36.21
2023-08-23T09:36:10.822Z,36.62
2023-08-23T09:38:56.206Z,35.61
2023-08-23T09:41:55.118Z,36.75
2023-08-23T09:44:47.865Z,36.06
2023-08-23T09:47:35.001Z,36.33
2023-08-23T09:50:20.483Z,35.92
2023-08-23T09:53:06.819Z,36.15
2023-08-23T09:55:54.013Z,36.03
2023-08-23T09:58:39.164Z,36.13
2023-08-23T10:01:33.141Z,36.30
2023-08-23T10:04:18.602Z,36.22
2023-08-23T10:07:02.691Z,36.68
2023-08-23T10:09:48.844Z,36.80
2023-08-23T10:12:36.266Z,36.96
2023-08-23T10:15:28.331Z,36.96
2023-08-23T10:18:16.048Z,37.15
2023-08-23T10:21:00.153Z,37.18
2023-08-23T10:23:44.548Z,37.41
2023-08-23T10:26:29.761Z,37.57
2023-08-23T10:29:15.343Z,36.66
2023-08-23T10:31:59.704Z,37.24
2023-08-23T10:34:44.623Z,37.52
2023-08-23T10:37:28.755Z,37.27
2023-08-23T10:40:12.938Z,37.31
2023-08-23T10:42:56.898Z,36.86
2023-08-23T10:46:04.137Z,35.90
2023-08-23T10:48:49.130Z,35.96
2023-08-23T10:51:33.802Z,36.54
2023-08-23T10:54:17.808Z,35.97
2023-08-23T10:57:01.796Z,35.14
2023-08-23T10:59:46.236Z,34.89
2023-08-23T11:02:32.391Z,35.86
2023-08-23T11:05:17.213Z,35.88
2023-08-23T11:08:01.969Z,35.54
2023-08-23T11:10:46.154Z,35.76
2023-08-23T11:13:30.185Z,36.21
2023-08-23T11:16:14.203Z,36.38
2023-08-23T11:18:59.965Z,35.67
2023-08-23T11:21:44.371Z,35.24
2023-08-23T11:24:28.745Z,34.65
2023-08-23T11:27:16.229Z,35.11
2023-08-23T11:30:01.218Z,35.32
2023-08-23T11:32:51.031Z,34.79
2023-08-23T11:35:36.345Z,34.66
2023-08-23T11:38:20.478Z,34.67
2023-08-23T11:41:04.807Z,34.58
2023-08-23T11:43:49.659Z,34.03
2023-08-23T11:46:35.339Z,34.22
2023-08-23T11:49:20.660Z,34.53
2023-08-23T11:52:06.046Z,34.13
2023-08-23T11:54:52.532Z,34.32
2023-08-23T11:57:36.619Z,34.42
2023-08-23T12:00:20.649Z,34.49
2023-08-23T12:03:04.866Z,34.77
2023-08-23T12:05:48.961Z,35.25
2023-08-23T12:08:34.882Z,35.26
2023-08-23T12:11:18.899Z,35.46
2023-08-23T12:14:07.708Z,35.72
2023-08-23T12:16:52.600Z,35.92
2023-08-23T12:19:38.356Z,36.23
2023-08-23T12:22:22.613Z,35.25
2023-08-23T12:25:09.014Z,35.77
2023-08-23T12:27:53.027Z,36.12
2023-08-23T12:30:37.168Z,35.95
2023-08-23T12:33:21.208Z,36.03
2023-08-23T12:36:05.611Z,35.78
2023-08-23T12:38:50.504Z,34.52
2023-08-23T12:41:36.091Z,34.46
2023-08-23T12:44:20.115Z,34.37
2023-08-23T12:47:04.122Z,33.78
2023-08-23T12:49:48.337Z,33.50
2023-08-23T12:52:32.385Z,33.59
2023-08-23T12:55:16.347Z,33.58
2023-08-23T12:58:14.018Z,33.40
2023-08-23T13:00:59.748Z,33.96
2023-08-23T13:03:45.905Z,34.01
2023-08-23T13:06:30.077Z,34.62
2023-08-23T13:09:13.978Z,34.71
2023-08-23T13:11:57.915Z,34.81
2023-08-23T13:14:43.454Z,33.86
2023-08-23T13:17:27.409Z,34.47
2023-08-23T13:20:13.072Z,34.71
2023-08-23T13:22:58.347Z,34.71
2023-08-23T13:25:42.380Z,34.86
2023-08-23T13:28:26.497Z,35.05
2023-08-23T13:31:11.770Z,35.14
2023-08-23T13:33:55.612Z,33.98
2023-08-23T13:36:39.720Z,33.18
2023-08-23T13:39:23.606Z,33.55
2023-08-23T13:42:07.992Z,33.37
2023-08-23T13:44:51.978Z,33.25
2023-08-23T13:47:37.284Z,33.31
2023-08-23T13:50:21.416Z,34.06
2023-08-23T13:53:05.662Z,34.01
2023-08-23T13:55:49.694Z,34.10
2023-08-23T13:58:33.551Z,34.48
2023-08-23T14:01:18.081Z,34.56
2023-08-23T14:04:04.382Z,34.39
2023-08-23T14:06:48.319Z,34.36
2023-08-23T14:09:32.919Z,34.11
2023-08-23T14:12:16.815Z,33.93
2023-08-23T14:15:00.792Z,33.59
2023-08-23T14:17:44.946Z,33.96
2023-08-23T14:20:30.348Z,34.04
2023-08-23T14:23:14.202Z,33.78
2023-08-23T14:25:59.445Z,33.32
2023-08-23T14:28:46.021Z,33.07
2023-08-23T14:31:30.545Z,34.06
2023-08-23T14:34:14.481Z,33.18
2023-08-23T14:36:59.764Z,32.99
2023-08-23T14:39:45.360Z,33.16
2023-08-23T14:42:32.964Z,32.75
2023-08-23T14:45:17.493Z,33.60
2023-08-23T14:48:01.998Z,33.24
2023-08-23T14:50:47.111Z,33.24
2023-08-23T14:53:32.724Z,33.50
2023-08-23T14:56:17.849Z,33.49
2023-08-23T14:59:02.050Z,33.56
2023-08-23T15:01:46.159Z,33.72
2023-08-23T15:04:30.315Z,32.78
2023-08-23T15:07:15.300Z,33.26
2023-08-23T15:10:00.931Z,33.55
2023-08-23T15:12:45.000Z,33.45
2023-08-23T15:15:29.197Z,33.57
2023-08-23T15:18:13.452Z,33.18
2023-08-23T15:20:57.816Z,33.07
2023-08-23T15:23:42.335Z,32.33
2023-08-23T15:26:28.031Z,32.25
2023-08-23T15:29:12.366Z,32.52
2023-08-23T15:31:56.679Z,33.35
2023-08-23T15:34:51.534Z,33.25
2023-08-23T15:37:35.855Z,33.05
2023-08-23T15:40:20.178Z,33.12
2023-08-23T15:43:06.160Z,33.46
2023-08-23T15:45:53.733Z,32.71
2023-08-23T15:48:37.961Z,33.13
2023-08-23T15:51:22.003Z,32.79
2023-08-23T15:54:06.437Z,32.84
2023-08-23T15:56:50.742Z,32.88
2023-08-23T15:59:37.206Z,32.70
2023-08-23T16:02:21.302Z,32.15
2023-08-23T16:05:06.057Z,32.48
2023-08-23T16:07:50.657Z,31.50
2023-08-23T16:10:35.255Z,31.75
2023-08-23T16:13:19.678Z,31.96
2023-08-23T16:16:05.642Z,32.19
2023-08-23T16:18:49.808Z,32.33
2023-08-23T16:21:34.326Z,32.35
2023-08-23T16:24:18.430Z,32.09
2023-08-23T16:27:02.616Z,31.70
2023-08-23T16:29:46.674Z,31.87
2023-08-23T16:32:32.534Z,31.64
2023-08-23T16:35:16.712Z,31.46
2023-08-23T16:38:00.885Z,31.29
2023-08-23T16:40:45.112Z,31.29
2023-08-23T16:43:33.351Z,31.07
2023-08-23T16:46:17.668Z,31.25
2023-08-23T16:49:03.705Z,30.15
2023-08-23T16:51:48.058Z,30.01
2023-08-23T16:54:32.172Z,30.16
2023-08-23T16:57:16.275Z,30.51
2023-08-23T17:00:00.440Z,30.68
2023-08-23T17:02:47.099Z,30.68
2023-08-23T17:05:35.135Z,30.54
2023-08-23T17:08:19.380Z,29.90
2023-08-23T17:11:04.832Z,30.13
2023-08-23T17:13:49.047Z,29.86
2023-08-23T17:16:33.248Z,29.60
2023-08-23T17:19:17.472Z,29.72
2023-08-23T17:22:03.213Z,29.98
2023-08-23T17:24:47.815Z,29.93
2023-08-23T17:27:32.058Z,29.85
2023-08-23T17:30:17.780Z,29.85
2023-08-23T17:33:02.149Z,29.90
2023-08-23T17:35:47.550Z,29.68
2023-08-23T17:38:33.552Z,29.48
2023-08-23T17:41:17.826Z,29.21
2023-08-23T17:44:02.034Z,28.68
2023-08-23T17:46:48.337Z,28.99
2023-08-23T17:49:33.994Z,28.63
2023-08-23T17:52:18.169Z,27.72
2023-08-23T17:55:03.851Z,27.23
2023-08-23T17:57:48.404Z,27.59
2023-08-23T18:00:32.568Z,27.39
2023-08-23T18:03:16.618Z,27.51
2023-08-23T18:06:00.822Z,27.68
2023-08-23T18:08:45.217Z,27.68
2023-08-23T18:11:30.902Z,27.42
2023-08-23T18:14:15.002Z,27.52
2023-08-23T18:16:59.182Z,27.70
2023-08-23T18:19:44.356Z,27.58
2023-08-23T18:22:28.429Z,27.19
2023-08-23T18:25:15.100Z,26.91
2023-08-23T18:28:01.645Z,26.92
2023-08-23T18:30:47.014Z,26.96
2023-08-23T18:33:36.175Z,26.61
2023-08-23T18:36:20.578Z,26.66
2023-08-23T18:39:06.480Z,26.60
2023-08-23T18:41:50.761Z,27.08
2023-08-23T18:44:36.418Z,26.85
2023-08-23T18:47:20.575Z,26.89
2023-08-23T18:50:04.979Z,26.74
2023-08-23T18:52:50.473Z,26.70
2023-08-23T18:55:35.001Z,26.36
2023-08-23T18:58:19.306Z,26.41
2023-08-23T19:01:05.136Z,26.57
2023-08-23T19:03:49.298Z,26.49
2023-08-23T19:06:33.547Z,26.04
2023-08-23T19:09:17.727Z,25.99
2023-08-23T19:12:01.732Z,26.34
2023-08-23T19:14:45.902Z,26.37
2023-08-23T19:17:31.554Z,25.99
2023-08-23T19:20:15.763Z,25.84
2023-08-23T19:22:59.962Z,25.81
2023-08-23T19:25:45.856Z,25.50
2023-08-23T19:28:29.935Z,25.81
2023-08-23T19:31:14.503Z,25.75
2023-08-23T19:34:00.122Z,25.50
2023-08-23T19:36:44.205Z,25.43
2023-08-23T19:39:28.306Z,25.09
2023-08-23T19:42:12.413Z,25.50
2023-08-23T19:44:58.221Z,25.40
2023-08-23T19:47:42.297Z,25.53
2023-08-23T19:50:27.994Z,25.56
2023-08-23T19:53:12.183Z,25.38
2023-08-23T19:55:59.265Z,25.28
2023-08-23T19:58:43.361Z,24.75
2023-08-23T20:01:27.482Z,24.95
2023-08-23T20:04:11.735Z,24.96
2023-08-23T20:07:01.613Z,24.98
2023-08-23T20:09:45.824Z,24.88
2023-08-23T20:12:30.078Z,24.69
2023-08-23T20:15:14.491Z,24.84
2023-08-23T20:17:58.759Z,24.81
2023-08-23T20:20:43.574Z,24.94
2023-08-23T20:23:29.401Z,24.81
2023-08-23T20:26:13.636Z,24.93
2023-08-23T20:28:58.466Z,24.88
2023-08-23T20:31:42.660Z,24.97
2023-08-23T20:34:27.126Z,24.96
2023-08-23T20:37:12.812Z,25.18
2023-08-23T20:39:58.395Z,24.75
2023-08-23T20:42:42.478Z,24.95
2023-08-23T20:45:27.792Z,24.89
2023-08-23T20:48:12.630Z,24.95
2023-08-23T20:50:56.771Z,24.65
2023-08-23T20:53:41.076Z,24.91
2023-08-23T20:56:27.199Z,24.89
2023-08-23T20:59:11.410Z,24.60
2023-08-23T21:01:55.586Z,24.30
2023-08-23T21:04:39.558Z,24.17
2023-08-23T21:07:23.734Z,24.64
2023-08-23T21:10:08.616Z,24.50
2023-08-23T21:12:54.361Z,24.31
2023-08-23T21:15:38.446Z,24.31
2023-08-23T21:18:23.110Z,24.49
2023-08-23T21:21:07.246Z,24.30
2023-08-23T21:23:51.377Z,24.32
2023-08-23T21:26:35.381Z,24.32
2023-08-23T21:29:20.811Z,24.30
2023-08-23T21:32:04.921Z,24.56
2023-08-23T21:34:49.033Z,24.18
2023-08-23T21:37:33.102Z,24.41
2023-08-23T21:40:17.458Z,24.24
2023-08-23T21:43:01.632Z,24.51
2023-08-23T21:45:47.040Z,24.55
2023-08-23T21:48:31.140Z,24.81
2023-08-23T21:51:15.272Z,24.66
2023-08-23T21:53:59.524Z,24.29
2023-08-23T21:56:43.879Z,24.47
2023-08-23T21:59:28.028Z,24.32
2023-08-23T22:02:13.529Z,24.33
2023-08-23T22:04:57.619Z,24.52
2023-08-23T22:07:41.507Z,24.39
2023-08-23T22:10:25.683Z,24.27
2023-08-23T22:13:09.811Z,24.79
2023-08-23T22:15:53.945Z,24.50
2023-08-23T22:18:39.861Z,24.55
2023-08-23T22:21:24.114Z,24.40
2023-08-23T22:24:08.161Z,23.93
2023-08-23T22:26:52.085Z,24.08
2023-08-23T22:29:36.026Z,24.17
2023-08-23T22:32:19.983Z,24.24
2023-08-23T22:35:06.215Z,24.33
2023-08-23T22:37:50.484Z,23.91
2023-08-23T22:40:35.087Z,24.05
2023-08-23T22:43:19.233Z,23.91
2023-08-23T22:46:07.692Z,23.85
2023-08-23T22:48:56.058Z,23.95
2023-08-23T22:51:41.691Z,23.88
2023-08-23T22:54:25.813Z,24.01
2023-08-23T22:57:09.815Z,24.23
2023-08-23T22:59:53.914Z,23.96
2023-08-23T23:02:38.473Z,24.28
2023-08-23T23:05:22.974Z,24.30
2023-08-23T23:08:08.672Z,24.23
2023-08-23T23:10:55.614Z,24.00
2023-08-23T23:13:39.686Z,24.06
2023-08-23T23:16:23.900Z,24.22
2023-08-23T23:19:08.157Z,24.22
2023-08-23T23:21:52.898Z,24.03
2023-08-23T23:24:39.793Z,23.90
2023-08-23T23:27:23.838Z,23.89
2023-08-23T23:30:09.334Z,23.80
2023-08-23T23:32:53.803Z,24.24
2023-08-23T23:35:38.037Z,23.99
2023-08-23T23:38:21.996Z,24.27
2023-08-23T23:41:07.748Z,24.24
2023-08-23T23:43:51.837Z,23.93
2023-08-23T23:46:35.939Z,23.73
2023-08-23T23:49:20.053Z,23.55
2023-08-23T23:52:04.259Z,23.97
2023-08-23T23:54:48.398Z,23.94
2023-08-23T23:57:34.081Z,23.67
